createdAt,value
2019-05-25T00:01:52.392Z,97159.38
2019-05-25T00:04:20.187Z,97157.96
2019-05-25T00:06:48.263Z,97155.25
2019-05-25T00:09:16.240Z,97155.11
2019-05-25T00:11:44.267Z,97149.13
2019-05-25T00:14:12.302Z,97152.60
2019-05-25T00:16:40.200Z,97151.84
2019-05-25T00:19:08.157Z,97150.25
2019-05-25T00:21:36.187Z,97153.75
2019-05-25T00:24:12.282Z,97153.46
2019-05-25T00:26:33.762Z,97148.13
2019-05-25T00:29:01.741Z,97143.98
2019-05-25T00:31:30.088Z,97150.40
2019-05-25T00:33:58.149Z,97152.34
2019-05-25T00:36:26.064Z,97153.46
2019-05-25T00:38:54.196Z,97158.23
2019-05-25T00:41:22.163Z,97160.02
2019-05-25T00:43:50.160Z,97164.59
2019-05-25T00:46:18.116Z,97163.88
2019-05-25T00:48:46.082Z,97161.53
2019-05-25T00:51:14.131Z,97162.29
2019-05-25T00:53:42.198Z,97160.82
2019-05-25T00:56:10.020Z,97161.17
2019-05-25T00:58:38.031Z,97157.58
2019-05-25T01:01:06.366Z,97156.47
2019-05-25T01:03:34.464Z,97164.64
2019-05-25T01:06:02.372Z,97158.37
2019-05-25T01:08:30.286Z,97160.64
2019-05-25T01:10:58.368Z,97164.59
2019-05-25T01:13:26.254Z,97166.50
2019-05-25T01:15:54.279Z,97162.35
2019-05-25T01:18:22.278Z,97157.58
2019-05-25T01:20:50.285Z,97161.59
2019-05-25T01:23:18.335Z,97159.79
2019-05-25T01:25:46.243Z,97155.17
2019-05-25T01:28:14.118Z,97160.23
2019-05-25T01:30:42.043Z,97173.33
2019-05-25T01:33:10.121Z,97164.20
2019-05-25T01:35:38.061Z,97161.85
2019-05-25T01:38:05.980Z,97163.20
2019-05-25T01:40:33.986Z,97166.47
2019-05-25T01:43:01.822Z,97165.91
2019-05-25T01:45:29.639Z,97164.35
2019-05-25T01:47:57.748Z,97164.12
2019-05-25T01:50:25.692Z,97166.47
2019-05-25T01:52:53.862Z,97158.94
2019-05-25T01:55:21.830Z,97163.55
2019-05-25T01:57:49.870Z,97152.88
2019-05-25T02:00:17.898Z,97150.87
2019-05-25T02:02:45.948Z,97146.22
2019-05-25T02:05:14.129Z,97151.88
2019-05-25T02:07:42.135Z,97153.79
2019-05-25T02:10:10.191Z,97147.58
2019-05-25T02:12:38.174Z,97151.88
2019-05-25T02:15:06.252Z,97152.23
2019-05-25T02:17:34.348Z,97158.41
2019-05-25T02:20:02.655Z,97159.34
2019-05-25T02:22:30.600Z,97157.41
2019-05-25T02:25:14.460Z,97160.47
2019-05-25T02:27:28.899Z,97153.28
2019-05-25T02:29:56.924Z,97155.84
2019-05-25T02:32:25.240Z,97151.94
2019-05-25T02:34:53.334Z,97151.94
2019-05-25T02:37:21.479Z,97154.64
2019-05-25T02:39:49.625Z,97157.46
2019-05-25T02:42:17.768Z,97159.58
2019-05-25T02:44:46.054Z,97154.75
2019-05-25T02:47:14.283Z,97152.81
2019-05-25T02:49:42.565Z,97156.66
2019-05-25T02:52:10.624Z,97156.66
2019-05-25T02:54:38.642Z,97156.46
2019-05-25T02:57:06.516Z,97157.37
2019-05-25T02:59:34.805Z,97161.88
2019-05-25T03:02:02.740Z,97165.94
2019-05-25T03:04:30.777Z,97164.14
2019-05-25T03:06:58.847Z,97160.08
2019-05-25T03:09:26.920Z,97163.48
2019-05-25T03:11:54.991Z,97162.69
2019-05-25T03:14:23.376Z,97160.78
2019-05-25T03:16:51.375Z,97155.92
2019-05-25T03:19:19.547Z,97152.66
2019-05-25T03:21:47.588Z,97157.52
2019-05-25T03:24:15.463Z,97155.16
2019-05-25T03:26:43.532Z,97155.72
2019-05-25T03:29:11.715Z,97153.57
2019-05-25T03:31:39.840Z,97158.98
2019-05-25T03:34:07.873Z,97157.42
2019-05-25T03:36:35.783Z,97166.69
2019-05-25T03:39:05.711Z,97160.13
2019-05-25T03:41:33.754Z,97158.13
2019-05-25T03:44:02.047Z,97159.34
2019-05-25T03:46:30.127Z,97156.77
2019-05-25T03:48:58.327Z,97160.27
2019-05-25T03:51:26.691Z,97162.74
2019-05-25T03:53:54.746Z,97163.54
2019-05-25T03:56:22.691Z,97161.74
2019-05-25T03:58:50.653Z,97167.16
2019-05-25T04:01:18.987Z,97163.23
2019-05-25T04:03:46.898Z,97166.50
2019-05-25T04:06:14.910Z,97167.30
2019-05-25T04:08:42.991Z,97170.35
2019-05-25T04:11:11.145Z,97166.30
2019-05-25T04:13:38.980Z,97164.39
2019-05-25T04:16:06.960Z,97170.91
2019-05-25T04:18:34.870Z,97173.06
2019-05-25T04:21:02.845Z,97174.41
2019-05-25T04:23:30.855Z,97184.09
2019-05-25T04:25:59.201Z,97185.89
2019-05-25T04:28:27.204Z,97191.66
2019-05-25T04:30:55.223Z,97194.56
2019-05-25T04:33:23.204Z,97191.09
2019-05-25T04:35:51.208Z,97191.95
2019-05-25T04:38:19.116Z,97190.39
2019-05-25T04:40:47.283Z,97189.16
2019-05-25T04:43:15.440Z,97189.74
2019-05-25T04:45:43.448Z,97184.74
2019-05-25T04:48:11.326Z,97185.54
2019-05-25T04:50:39.632Z,97187.45
2019-05-25T04:53:07.657Z,97185.39
2019-05-25T04:55:35.638Z,97192.16
2019-05-25T04:58:03.569Z,97195.45
2019-05-25T05:00:31.490Z,97192.52
2019-05-25T05:02:59.438Z,97198.58
2019-05-25T05:05:27.460Z,97202.28
2019-05-25T05:07:55.350Z,97197.46
2019-05-25T05:10:23.315Z,97199.58
2019-05-25T05:12:51.219Z,97201.87
2019-05-25T05:15:19.234Z,97196.22
2019-05-25T05:17:47.283Z,97197.46
2019-05-25T05:20:15.409Z,97200.17
2019-05-25T05:22:43.523Z,97200.38
2019-05-25T05:25:12.209Z,97203.87
2019-05-25T05:27:40.389Z,97200.02
2019-05-25T05:30:09.326Z,97195.27
2019-05-25T05:32:37.370Z,97197.27
2019-05-25T05:35:05.945Z,97204.48
2019-05-25T05:37:33.902Z,97201.33
2019-05-25T05:40:01.885Z,97203.47
2019-05-25T05:42:29.860Z,97205.48
2019-05-25T05:44:58.167Z,97207.84
2019-05-25T05:47:26.694Z,97215.61
2019-05-25T05:49:54.807Z,97216.40
2019-05-25T05:52:22.914Z,97219.45
2019-05-25T05:54:50.853Z,97223.73
2019-05-25T05:57:18.768Z,97222.81
2019-05-25T05:59:46.953Z,97218.97
2019-05-25T06:02:14.864Z,97221.67
2019-05-25T06:04:42.769Z,97231.03
2019-05-25T06:07:10.781Z,97224.47
2019-05-25T06:09:39.023Z,97222.67
2019-05-25T06:12:07.149Z,97225.68
2019-05-25T06:14:35.190Z,97223.42
2019-05-25T06:17:03.209Z,97227.73
2019-05-25T06:19:31.052Z,97224.62
2019-05-25T06:21:59.159Z,97222.12
2019-05-25T06:24:27.161Z,97225.88
2019-05-25T06:26:55.386Z,97224.66
2019-05-25T06:29:23.366Z,97218.91
2019-05-25T06:31:51.619Z,97225.83
2019-05-25T06:34:19.903Z,97225.56
2019-05-25T06:36:47.871Z,97227.28
2019-05-25T06:39:15.908Z,97233.70
2019-05-25T06:41:43.818Z,97230.74
2019-05-25T06:44:11.731Z,97232.45
2019-05-25T06:46:39.950Z,97235.75
2019-05-25T06:49:07.764Z,97240.05
2019-05-25T06:51:35.779Z,97231.34
2019-05-25T06:54:03.857Z,97230.78
2019-05-25T06:56:32.110Z,97232.13
2019-05-25T06:58:59.987Z,97235.20
2019-05-25T07:01:27.947Z,97233.84
2019-05-25T07:03:55.924Z,97231.93
2019-05-25T07:06:24.185Z,97236.11
2019-05-25T07:08:52.065Z,97243.17
2019-05-25T07:11:19.949Z,97238.87
2019-05-25T07:13:47.780Z,97241.77
2019-05-25T07:16:15.928Z,97240.41
2019-05-25T07:18:43.746Z,97241.21
2019-05-25T07:21:11.633Z,97242.77
2019-05-25T07:23:39.507Z,97243.33
2019-05-25T07:26:07.517Z,97247.18
2019-05-25T07:28:35.412Z,97245.48
2019-05-25T07:31:03.329Z,97249.54
2019-05-25T07:33:31.523Z,97245.78
2019-05-25T07:35:59.559Z,97249.98
2019-05-25T07:38:27.542Z,97258.31
2019-05-25T07:40:55.544Z,97252.90
2019-05-25T07:43:23.558Z,97254.11
2019-05-25T07:45:51.366Z,97251.98
2019-05-25T07:48:19.315Z,97252.20
2019-05-25T07:50:47.322Z,97251.98
2019-05-25T07:53:15.373Z,97255.46
2019-05-25T07:55:43.359Z,97249.79
2019-05-25T07:58:17.675Z,97252.94
2019-05-25T08:00:41.170Z,97254.85
2019-05-25T08:03:09.372Z,97250.30
2019-05-25T08:05:37.328Z,97243.77
2019-05-25T08:08:05.584Z,97250.53
2019-05-25T08:10:33.728Z,97254.16
2019-05-25T08:13:01.683Z,97249.53
2019-05-25T08:15:29.452Z,97250.74
2019-05-25T08:17:57.502Z,97251.89
2019-05-25T08:20:25.284Z,97252.00
2019-05-25T08:22:53.063Z,97248.53
2019-05-25T08:25:20.946Z,97249.73
2019-05-25T08:27:48.891Z,97254.01
2019-05-25T08:30:16.674Z,97257.36
2019-05-25T08:32:44.590Z,97256.45
2019-05-25T08:35:12.828Z,97256.31
2019-05-25T08:37:40.762Z,97249.24
2019-05-25T08:40:08.622Z,97254.16
2019-05-25T08:42:36.630Z,97252.54
2019-05-25T08:45:05.143Z,97253.39
2019-05-25T08:47:32.935Z,97249.83
2019-05-25T08:50:00.850Z,97255.25
2019-05-25T08:52:28.632Z,97257.10
2019-05-25T08:54:56.861Z,97253.16
2019-05-25T08:57:25.070Z,97252.39
2019-05-25T08:59:53.137Z,97249.75
2019-05-25T09:02:21.034Z,97256.52
2019-05-25T09:04:49.244Z,97254.55
2019-05-25T09:07:17.153Z,97254.45
2019-05-25T09:09:45.445Z,97253.55
2019-05-25T09:12:13.446Z,97263.59
2019-05-25T09:14:41.470Z,97257.41
2019-05-25T09:17:09.388Z,97253.75
2019-05-25T09:19:37.351Z,97260.67
2019-05-25T09:22:05.398Z,97265.53
2019-05-25T09:24:33.410Z,97264.64
2019-05-25T09:27:01.347Z,97267.59
2019-05-25T09:29:29.258Z,97266.23
2019-05-25T09:31:57.276Z,97263.59
2019-05-25T09:34:25.316Z,97268.59
2019-05-25T09:36:53.756Z,97259.88
2019-05-25T09:39:21.989Z,97260.46
2019-05-25T09:41:50.027Z,97266.09
2019-05-25T09:44:18.119Z,97262.32
2019-05-25T09:46:46.216Z,97266.38
2019-05-25T09:49:14.348Z,97264.59
2019-05-25T09:51:42.772Z,97261.17
2019-05-25T09:54:10.727Z,97261.17
2019-05-25T09:56:38.803Z,97255.55
2019-05-25T09:59:19.190Z,97255.75
2019-05-25T10:01:36.408Z,97256.41
2019-05-25T10:04:04.531Z,97250.34
2019-05-25T10:06:32.528Z,97252.34
2019-05-25T10:09:00.703Z,97248.42
2019-05-25T10:11:28.981Z,97254.58
2019-05-25T10:13:57.137Z,97253.70
2019-05-25T10:16:25.233Z,97249.37
2019-05-25T10:18:53.253Z,97249.16
2019-05-25T10:21:21.296Z,97245.75
2019-05-25T10:23:49.495Z,97247.16
2019-05-25T10:26:17.479Z,97247.52
2019-05-25T10:28:45.684Z,97246.80
2019-05-25T10:31:13.680Z,97241.03
2019-05-25T10:33:41.798Z,97240.38
2019-05-25T10:36:09.894Z,97234.84
2019-05-25T10:38:37.947Z,97241.63
2019-05-25T10:41:06.013Z,97233.91
2019-05-25T10:43:34.206Z,97231.14
2019-05-25T10:46:02.628Z,97230.19
2019-05-25T10:48:30.512Z,97232.34
2019-05-25T10:50:58.409Z,97226.13
2019-05-25T10:53:26.445Z,97222.51
2019-05-25T10:55:54.446Z,97216.05
2019-05-25T10:58:22.483Z,97206.13
2019-05-25T11:00:50.666Z,97208.69
2019-05-25T11:03:18.700Z,97205.98
2019-05-25T11:05:46.756Z,97211.84
2019-05-25T11:08:14.839Z,97199.64
2019-05-25T11:10:42.652Z,97205.91
2019-05-25T11:13:10.652Z,97200.28
2019-05-25T11:15:38.532Z,97195.59
2019-05-25T11:18:07.143Z,97199.42
2019-05-25T11:20:35.171Z,97201.92
2019-05-25T11:23:03.149Z,97200.93
2019-05-25T11:25:31.253Z,97198.38
2019-05-25T11:27:59.262Z,97196.86
2019-05-25T11:30:27.119Z,97191.44
2019-05-25T11:32:55.008Z,97182.95
2019-05-25T11:35:22.886Z,97178.81
2019-05-25T11:37:50.710Z,97179.61
2019-05-25T11:40:20.516Z,97185.88
2019-05-25T11:42:48.380Z,97168.52
2019-05-25T11:45:16.141Z,97168.23
2019-05-25T11:47:43.943Z,97174.81
2019-05-25T11:50:11.844Z,97180.96
2019-05-25T11:52:40.354Z,97180.25
2019-05-25T11:55:08.474Z,97171.41
2019-05-25T11:57:36.482Z,97177.55
2019-05-25T12:00:05.384Z,97173.96
2019-05-25T12:02:33.288Z,97175.88
2019-05-25T12:05:01.181Z,97179.54
2019-05-25T12:07:29.102Z,97175.23
2019-05-25T12:09:57.007Z,97175.83
2019-05-25T12:12:25.108Z,97176.03
2019-05-25T12:14:53.006Z,97171.41
2019-05-25T12:17:21.216Z,97175.32
2019-05-25T12:19:49.212Z,97174.17
2019-05-25T12:22:36.290Z,97167.47
2019-05-25T12:25:04.275Z,97171.38
2019-05-25T12:27:32.150Z,97166.67
2019-05-25T12:30:00.192Z,97165.31
2019-05-25T12:32:28.092Z,97165.67
2019-05-25T12:34:55.856Z,97167.11
2019-05-25T12:37:23.639Z,97167.59
2019-05-25T12:42:38.791Z,97169.30
2019-05-25T12:45:07.038Z,97173.89
2019-05-25T12:47:34.968Z,97170.94
2019-05-25T12:50:02.858Z,97180.43
2019-05-25T12:52:30.741Z,97176.52
2019-05-25T12:55:17.836Z,97183.66
2019-05-25T12:57:46.201Z,97177.67
2019-05-25T13:00:16.173Z,97076.59
2019-05-25T13:05:31.195Z,97183.38
2019-05-25T13:07:47.239Z,97181.14
2019-05-25T13:10:15.038Z,97187.92
2019-05-25T13:12:42.797Z,97196.49
2019-05-25T13:15:10.802Z,97177.80
2019-05-25T13:20:12.745Z,97183.22
2019-05-25T13:22:59.846Z,97175.16
2019-05-25T13:25:46.912Z,97174.73
2019-05-25T13:28:14.772Z,97190.28
2019-05-25T13:30:42.849Z,97177.28
2019-05-25T13:33:10.727Z,97173.73
2019-05-25T13:35:38.538Z,97179.07
2019-05-25T13:38:06.510Z,97177.48
2019-05-25T13:40:34.814Z,97174.01
2019-05-25T13:43:02.858Z,97170.70
2019-05-25T13:48:17.888Z,97162.00
2019-05-25T13:50:46.169Z,97172.30
2019-05-25T13:53:14.170Z,97175.13
2019-05-25T13:55:42.062Z,97160.85
2019-05-25T13:58:28.870Z,97172.66
2019-05-25T14:00:56.851Z,97168.98
2019-05-25T14:03:24.867Z,97166.44
2019-05-25T14:06:11.780Z,97179.35
2019-05-25T14:08:40.122Z,97179.16
2019-05-25T14:11:08.012Z,97186.92
2019-05-25T14:13:55.011Z,97195.06
2019-05-25T14:16:22.941Z,97191.00
2019-05-25T14:18:50.942Z,97191.55
2019-05-25T14:21:18.859Z,97194.42
2019-05-25T14:26:20.416Z,97199.25
2019-05-25T14:28:48.486Z,97193.83
2019-05-25T14:31:45.148Z,97201.97
2019-05-25T14:34:05.002Z,97197.90
2019-05-25T14:36:32.994Z,97201.41
2019-05-25T14:39:00.944Z,97196.70
2019-05-25T14:41:28.805Z,97198.77
2019-05-25T14:43:56.588Z,97197.18
2019-05-25T14:46:27.681Z,97201.61
2019-05-25T14:48:54.183Z,97208.27
2019-05-25T14:54:09.025Z,97194.67
2019-05-25T14:56:36.812Z,97188.13
2019-05-25T14:59:04.648Z,97182.63
2019-05-25T15:01:32.659Z,97185.70
2019-05-25T15:04:00.545Z,97185.93
2019-05-25T15:06:28.618Z,97185.70
2019-05-25T15:08:56.593Z,97186.49
2019-05-25T15:11:24.467Z,97176.84
2019-05-25T15:13:52.340Z,97178.84
2019-05-25T15:16:20.332Z,97174.36
2019-05-25T15:18:48.180Z,97162.92
2019-05-25T15:21:16.082Z,97160.45
2019-05-25T15:23:44.066Z,97165.64
2019-05-25T15:26:12.361Z,97165.72
2019-05-25T15:28:40.312Z,97168.23
2019-05-25T15:31:08.109Z,97162.56
2019-05-25T15:33:35.972Z,97160.29
2019-05-25T15:36:03.926Z,97160.09
2019-05-25T15:38:31.923Z,97163.36
2019-05-25T15:40:59.882Z,97167.79
2019-05-25T15:43:27.794Z,97172.34
2019-05-25T15:45:55.761Z,97165.72
2019-05-25T15:48:26.280Z,97164.72
2019-05-25T15:53:40.446Z,97162.92
2019-05-25T15:56:08.548Z,97161.30
2019-05-25T15:58:36.466Z,97163.09
2019-05-25T16:01:04.564Z,97168.87
2019-05-25T16:03:51.542Z,97167.71
2019-05-25T16:06:19.475Z,97167.16
2019-05-25T16:08:47.349Z,97174.13
2019-05-25T16:11:15.703Z,97177.44
2019-05-25T16:13:43.634Z,97174.13
2019-05-25T16:16:11.490Z,97174.29
2019-05-25T16:18:39.509Z,97169.06
2019-05-25T16:21:07.530Z,97171.06
2019-05-25T16:23:35.350Z,97168.15
2019-05-25T16:26:03.275Z,97177.00
2019-05-25T16:28:31.235Z,97175.84
2019-05-25T16:30:59.242Z,97175.72
2019-05-25T16:33:27.320Z,97169.94
2019-05-25T16:35:57.854Z,97176.28
2019-05-25T16:38:25.082Z,97176.84
2019-05-25T16:40:53.143Z,97178.56
2019-05-25T16:45:55.243Z,97185.57
2019-05-25T16:48:23.582Z,97193.83
2019-05-25T16:50:51.576Z,97187.28
2019-05-25T16:53:19.490Z,97192.70
2019-05-25T16:56:06.320Z,97197.14
2019-05-25T16:58:34.170Z,97200.41
2019-05-25T17:01:02.522Z,97201.97
2019-05-25T17:06:05.736Z,97215.32
2019-05-25T17:08:33.655Z,97218.47
2019-05-25T17:11:01.736Z,97221.59
2019-05-25T17:13:29.694Z,97225.81
2019-05-25T17:15:57.558Z,97229.67
2019-05-25T17:18:25.496Z,97226.24
2019-05-25T17:20:53.362Z,97230.88
2019-05-25T17:23:21.454Z,97237.02
2019-05-25T17:25:49.829Z,97239.88
2019-05-25T17:28:17.815Z,97237.45
2019-05-25T17:30:46.112Z,97245.14
2019-05-25T17:33:14.164Z,97250.77
2019-05-25T17:35:42.156Z,97244.94
2019-05-25T17:38:10.430Z,97250.13
2019-05-25T17:40:38.800Z,97251.48
2019-05-25T17:43:06.912Z,97251.48
2019-05-25T17:45:35.065Z,97244.70
2019-05-25T17:48:03.025Z,97249.66
2019-05-25T17:50:31.063Z,97246.70
2019-05-25T17:52:59.341Z,97248.70
2019-05-25T17:55:27.460Z,97250.77
2019-05-25T17:57:55.520Z,97247.50
2019-05-25T18:00:54.108Z,97251.48
2019-05-25T18:03:22.158Z,97254.08
2019-05-25T18:05:50.073Z,97251.56
2019-05-25T18:08:18.007Z,97248.93
2019-05-25T18:13:33.134Z,97251.92
2019-05-25T18:16:01.012Z,97259.42
2019-05-25T18:18:28.888Z,97255.20
2019-05-25T18:20:57.148Z,97252.64
2019-05-25T18:23:25.042Z,97255.50
2019-05-25T18:25:53.099Z,97255.15
2019-05-25T18:28:21.067Z,97255.34
2019-05-25T18:31:08.023Z,97255.27
2019-05-25T18:33:36.029Z,97259.06
2019-05-25T18:36:03.841Z,97265.34
2019-05-25T18:38:50.653Z,97264.70
2019-05-25T18:41:18.711Z,97263.35
2019-05-25T18:43:46.728Z,97269.53
2019-05-25T18:46:14.509Z,97270.33
2019-05-25T18:48:42.786Z,97274.31
2019-05-25T18:51:10.779Z,97276.27
2019-05-25T18:53:38.809Z,97278.38
2019-05-25T18:56:06.706Z,97277.73
2019-05-25T18:58:34.693Z,97274.67
2019-05-25T19:01:02.780Z,97272.55
2019-05-25T19:03:30.579Z,97280.09
2019-05-25T19:05:58.563Z,97273.47
2019-05-25T19:08:26.328Z,97278.48
2019-05-25T19:10:54.201Z,97280.89
2019-05-25T19:13:22.395Z,97286.66
2019-05-25T19:15:50.620Z,97292.09
2019-05-25T19:18:18.669Z,97297.72
2019-05-25T19:20:46.631Z,97297.51
2019-05-25T19:23:33.470Z,97307.91
2019-05-25T19:26:01.380Z,97309.00
2019-05-25T19:28:29.668Z,97315.19
2019-05-25T19:30:57.733Z,97321.77
2019-05-25T19:33:25.725Z,97321.31
2019-05-25T19:35:54.490Z,97324.03
2019-05-25T19:41:10.679Z,97333.75
2019-05-25T19:43:38.714Z,97339.09
2019-05-25T19:46:25.658Z,97340.80
2019-05-25T19:48:53.453Z,97343.71
2019-05-25T19:51:21.424Z,97346.42
2019-05-25T19:56:36.456Z,97350.42
2019-05-25T19:59:23.529Z,97357.55
2019-05-25T20:01:51.727Z,97353.70
2019-05-25T20:04:19.860Z,97354.25
2019-05-25T20:06:47.747Z,97358.91
2019-05-25T20:09:15.756Z,97361.83
2019-05-25T20:12:02.825Z,97362.97
2019-05-25T20:17:18.123Z,97371.81
2019-05-25T20:19:46.097Z,97370.10
2019-05-25T20:22:14.001Z,97375.52
2019-05-25T20:24:42.410Z,97373.52
2019-05-25T20:27:10.419Z,97371.81
2019-05-25T20:29:38.845Z,97375.52
2019-05-25T20:32:06.894Z,97376.78
2019-05-25T20:34:35.032Z,97376.58
2019-05-25T20:37:03.021Z,97378.49
2019-05-25T20:39:30.963Z,97381.05
2019-05-25T20:41:58.952Z,97374.42
2019-05-25T20:44:27.095Z,97375.22
2019-05-25T20:46:55.253Z,97376.34
2019-05-25T20:49:23.532Z,97376.28
2019-05-25T20:57:14.442Z,97371.41
2019-05-25T20:59:42.472Z,97369.71
2019-05-25T21:02:10.598Z,97374.78
2019-05-25T21:04:38.737Z,97378.28
2019-05-25T21:07:07.131Z,97384.61
2019-05-25T21:09:35.155Z,97388.33
2019-05-25T21:12:22.191Z,97388.47
2019-05-25T21:14:50.412Z,97390.03
2019-05-25T21:17:18.605Z,97395.80
2019-05-25T21:19:46.903Z,97385.49
2019-05-25T21:22:14.894Z,97385.84
2019-05-25T21:24:43.019Z,97394.21
2019-05-25T21:27:11.141Z,97398.03
2019-05-25T21:29:38.951Z,97398.98
2019-05-25T21:32:06.920Z,97403.18
2019-05-25T21:34:34.970Z,97403.80
2019-05-25T21:37:02.984Z,97405.16
2019-05-25T21:39:31.071Z,97406.89
2019-05-25T21:41:58.914Z,97409.02
2019-05-25T21:44:26.981Z,97419.44
2019-05-25T21:46:55.122Z,97409.72
2019-05-25T21:49:23.007Z,97411.01
2019-05-25T21:51:51.013Z,97416.63
2019-05-25T21:54:19.080Z,97418.44
2019-05-25T21:56:47.200Z,97419.34
2019-05-25T21:59:15.277Z,97420.34
2019-05-25T22:04:16.671Z,97428.31
2019-05-25T22:06:45.001Z,97426.81
2019-05-25T22:09:13.364Z,97433.48
2019-05-25T22:11:41.458Z,97434.84
2019-05-25T22:14:09.574Z,97437.90
2019-05-25T22:16:37.706Z,97437.20
2019-05-25T22:19:05.588Z,97442.41
2019-05-25T22:21:33.577Z,97440.61
2019-05-25T22:24:01.638Z,97447.17
2019-05-25T22:26:29.758Z,97450.23
2019-05-25T22:28:57.744Z,97447.37
2019-05-25T22:31:26.155Z,97448.52
2019-05-25T22:36:39.583Z,97441.09
2019-05-25T22:38:59.608Z,97445.26
2019-05-25T22:41:27.682Z,97437.48
2019-05-25T22:43:55.817Z,97441.96
2019-05-25T22:46:23.906Z,97443.36
2019-05-25T22:48:52.036Z,97454.33
2019-05-25T22:51:20.091Z,97445.06
2019-05-25T22:53:51.015Z,97447.00
2019-05-25T22:56:19.470Z,97450.13
2019-05-25T22:58:47.585Z,97446.06
2019-05-25T23:01:15.724Z,97440.44
2019-05-25T23:03:43.776Z,97448.56
2019-05-25T23:06:11.856Z,97444.30
2019-05-25T23:08:39.985Z,97439.87
2019-05-25T23:11:08.365Z,97436.38
2019-05-25T23:13:36.368Z,97438.08
2019-05-25T23:16:04.447Z,97442.48
2019-05-25T23:18:32.436Z,97432.80
2019-05-25T23:21:00.571Z,97425.44
2019-05-25T23:23:28.930Z,97427.59
2019-05-25T23:25:57.002Z,97427.94
2019-05-25T23:28:24.962Z,97429.43
2019-05-25T23:30:52.930Z,97424.43
2019-05-25T23:33:20.854Z,97421.52
2019-05-25T23:35:48.870Z,97423.08
2019-05-25T23:38:16.780Z,97425.13
2019-05-25T23:40:44.711Z,97424.58
2019-05-25T23:45:47.135Z,97421.66
2019-05-25T23:48:15.532Z,97416.89
2019-05-25T23:50:43.568Z,97423.56
2019-05-25T23:53:30.718Z,97417.73
2019-05-25T23:55:58.928Z,97418.70
2019-05-25T23:58:26.818Z,97414.88
